Time;durP1;ratioP1;P1;durP2;ratioP2;P2;SDS_P1;SDS_P2;PMS_P1;PMS_P2;Temp;Humidity;BMP_temperature;BMP_pressure;BME280_temperature;BME280_humidity;BME280_pressure;Samples;Min_cycle;Max_cycle;Signal;HPM_P1;HPM_P2
2023/10/24 00:00:51;;;;;;;;;7.00;7.00;;;;;18.31;57.83;100345.44;2037213;27;3461695;-71
2023/10/24 00:02:02;;;;;;;;;4.00;2.67;;;;;18.33;57.82;100345.31;2052219;27;2739856;-71
2023/10/24 00:03:13;;;;;;;;;4.00;4.00;;;;;18.35;57.75;100346.03;2004535;27;2737764;-71
2023/10/24 00:04:24;;;;;;;;;3.00;3.00;;;;;18.38;57.85;100339.66;2044646;27;2750324;-71
2023/10/24 00:05:35;;;;;;;;;7.67;5.00;;;;;18.41;57.88;100347.41;2035816;27;2748193;-71
2023/10/24 00:06:46;;;;;;;;;4.00;2.67;;;;;18.43;57.85;100341.00;2053152;27;2733627;-71
2023/10/24 00:07:57;;;;;;;;;9.00;8.00;;;;;18.47;57.90;100338.13;2048867;27;2746121;-71
2023/10/24 00:09:08;;;;;;;;;6.00;5.00;;;;;18.43;57.67;100333.03;2050863;27;2745475;-71
2023/10/24 00:10:18;;;;;;;;;6.67;6.00;;;;;18.43;57.84;100326.84;2043316;27;3459627;-71
2023/10/24 00:11:29;;;;;;;;;7.33;3.33;;;;;18.42;57.55;100331.31;2040510;27;2748203;-71
2023/10/24 00:12:41;;;;;;;;;7.25;6.50;;;;;18.43;57.73;100326.84;2052583;27;2728393;-71
2023/10/24 00:13:54;;;;;;;;;6.67;6.00;;;;;18.42;57.81;100326.00;2058833;27;2729476;-71
2023/10/24 00:15:05;;;;;;;;;9.00;7.33;;;;;18.40;57.75;100330.59;2008174;27;2736813;-71
2023/10/24 00:16:16;;;;;;;;;3.00;3.00;;;;;18.41;57.96;100329.66;2031815;27;2754428;-71
2023/10/24 00:17:27;;;;;;;;;5.67;3.67;;;;;18.41;57.67;100329.66;2040092;27;2752478;-71
2023/10/24 00:18:38;;;;;;;;;13.00;9.00;;;;;18.44;57.60;100329.44;2041051;27;2762772;-71
2023/10/24 00:19:50;;;;;;;;;9.25;6.75;;;;;18.43;57.76;100332.19;2057722;27;1818985;-71
2023/10/24 00:21:03;;;;;;;;;7.67;6.67;;;;;18.42;57.93;100328.66;2036707;27;2732508;-71
2023/10/24 00:22:16;;;;;;;;;2.33;2.00;;;;;18.42;57.93;100331.31;2037649;27;2727312;-71
2023/10/24 00:23:29;;;;;;;;;4.00;4.00;;;;;18.43;57.87;100329.53;2009757;27;2754515;-71
2023/10/24 00:24:39;;;;;;;;;5.00;5.00;;;;;18.47;57.86;100330.16;2032045;27;2746062;-72
2023/10/24 00:25:51;;;;;;;;;3.33;3.00;;;;;18.49;57.51;100330.88;2053109;27;2747179;-72
2023/10/24 00:27:01;;;;;;;;;6.00;6.00;;;;;18.50;57.45;100321.94;2035617;27;2743098;-71
2023/10/24 00:28:13;;;;;;;;;7.00;6.00;;;;;18.51;57.60;100332.47;2046723;27;2739869;-71
2023/10/24 00:29:26;;;;;;;;;7.83;7.83;;;;;18.50;57.72;100328.09;2053761;27;2728889;-71
2023/10/24 00:30:37;;;;;;;;;4.00;4.00;;;;;18.49;57.39;100325.56;2015872;27;2743004;-71
2023/10/24 00:31:49;;;;;;;;;5.40;4.80;;;;;18.49;57.51;100330.88;2052022;27;2731567;-71
2023/10/24 00:33:00;;;;;;;;;8.00;7.67;;;;;18.48;57.35;100332.69;2040050;28;1819073;-71
2023/10/24 00:34:12;;;;;;;;;4.67;4.67;;;;;18.49;57.52;100325.56;2020058;27;2748210;-71
2023/10/24 00:35:25;;;;;;;;;6.33;5.00;;;;;18.50;57.38;100327.25;2052777;27;2732548;-71
2023/10/24 00:36:36;;;;;;;;;4.00;3.33;;;;;18.50;57.81;100333.44;2009684;27;2746129;-71
2023/10/24 00:37:49;;;;;;;;;6.67;5.83;;;;;18.51;57.73;100331.63;2061311;27;2734638;-71
2023/10/24 00:39:01;;;;;;;;;8.00;7.00;;;;;18.50;57.38;100328.09;2026096;27;1828901;-71
2023/10/24 00:40:11;;;;;;;;;4.00;3.00;;;;;18.50;57.28;100320.13;2034531;27;2752345;-70
2023/10/24 00:41:22;;;;;;;;;7.00;7.00;;;;;18.51;57.48;100318.31;2041439;27;2746191;-71
2023/10/24 00:42:34;;;;;;;;;8.75;5.75;;;;;18.51;57.27;100315.66;2065051;27;1825304;-71
2023/10/24 00:43:45;;;;;;;;;7.00;7.00;;;;;18.49;57.43;100315.78;2047806;27;1817098;-71
2023/10/24 00:44:55;;;;;;;;;6.67;6.67;;;;;18.47;57.50;100327.50;2030266;27;3457543;-71
2023/10/24 00:46:07;;;;;;;;;6.00;4.67;;;;;18.42;57.63;100320.69;2043250;27;2744043;-71
2023/10/24 00:47:18;;;;;;;;;9.33;6.33;;;;;18.40;57.91;100322.59;2024425;28;2746170;-71
2023/10/24 00:48:32;;;;;;;;;7.60;7.60;;;;;18.40;57.70;100321.75;2055950;27;2733658;-71
2023/10/24 00:49:43;;;;;;;;;8.00;7.00;;;;;18.37;58.15;100322.00;2012336;27;2748254;-71
2023/10/24 00:50:55;;;;;;;;;5.00;3.25;;;;;18.33;58.06;100321.34;2052305;27;2735702;-71
2023/10/24 00:52:05;;;;;;;;;6.00;6.00;;;;;18.31;58.21;100315.31;2004288;27;2732581;-71
2023/10/24 00:53:16;;;;;;;;;4.33;4.33;;;;;18.31;58.08;100312.66;2043713;27;2737794;-71
2023/10/24 00:54:31;;;;;;;;;6.60;5.60;;;;;18.31;57.75;100323.28;2051335;27;2732580;-71
2023/10/24 00:55:42;;;;;;;;;8.33;6.33;;;;;18.31;57.90;100318.81;2027686;28;2742994;-71
2023/10/24 00:56:54;;;;;;;;;7.50;7.50;;;;;18.32;57.80;100314.34;2052218;27;2735675;-71
2023/10/24 00:58:09;;;;;;;;;6.83;6.83;;;;;18.32;58.11;100314.34;2054877;27;2738835;-71
2023/10/24 00:59:23;;;;;;;;;6.00;6.00;;;;;18.28;57.79;100312.84;2004650;27;2749247;-71
2023/10/24 01:00:34;;;;;;;;;7.00;7.00;;;;;18.28;58.25;100316.38;2026955;27;2746453;-71
2023/10/24 01:01:48;;;;;;;;;8.17;5.33;;;;;18.28;58.16;100312.84;2051705;27;2736161;-71
2023/10/24 01:03:01;;;;;;;;;10.00;8.67;;;;;18.25;58.39;100310.44;2002966;27;3477320;-71
2023/10/24 01:04:12;;;;;;;;;8.00;8.00;;;;;18.20;58.63;100311.59;2024422;27;2748188;-71
2023/10/24 01:05:24;;;;;;;;;8.25;8.00;;;;;18.14;58.52;100305.84;2040264;27;1812841;-71
2023/10/24 01:06:35;;;;;;;;;7.67;6.00;;;;;18.06;58.61;100306.41;2039959;28;1808572;-71
2023/10/24 01:07:47;;;;;;;;;6.00;6.00;;;;;17.98;58.58;100302.50;2003870;27;2737785;-71
2023/10/24 01:08:57;;;;;;;;;4.67;3.33;;;;;17.95;58.64;100301.88;2034719;27;2752416;-71
2023/10/24 01:10:11;;;;;;;;;7.67;5.33;;;;;17.94;58.54;100302.81;2050649;27;3455949;-71
2023/10/24 01:11:25;;;;;;;;;4.83;4.83;;;;;17.94;59.13;100297.50;2060158;27;2740878;-71
2023/10/24 01:12:35;;;;;;;;;5.67;5.67;;;;;17.97;59.30;100300.81;2011809;27;2749237;-71
2023/10/24 01:13:47;;;;;;;;;8.00;8.00;;;;;17.97;59.46;100299.94;2064380;27;1835666;-71
2023/10/24 01:15:00;;;;;;;;;4.50;4.00;;;;;17.97;58.62;100291.97;2038181;27;2741959;-71
2023/10/24 01:16:11;;;;;;;;;5.00;5.00;;;;;17.99;59.10;100304.19;2002528;27;2748262;-71
2023/10/24 01:17:22;;;;;;;;;6.00;5.00;;;;;18.02;58.97;100304.94;2053965;27;2748249;-71
2023/10/24 01:18:34;;;;;;;;;5.00;5.00;;;;;18.04;58.69;100301.22;2066651;27;1808097;-71
2023/10/24 01:19:47;;;;;;;;;7.33;7.33;;;;;18.05;58.62;100307.38;2052965;27;2741927;-71
2023/10/24 01:20:57;;;;;;;;;3.00;3.00;;;;;18.07;59.02;100302.81;2004987;27;2741943;-71
2023/10/24 01:22:08;;;;;;;;;8.50;7.00;;;;;18.09;58.34;100304.41;2048697;27;2747172;-71
2023/10/24 01:23:21;;;;;;;;;3.25;3.25;;;;;18.13;58.81;100310.31;2051329;27;2737756;-71
2023/10/24 01:24:32;;;;;;;;;8.00;7.00;;;;;18.14;58.97;100300.53;2045339;27;1830522;-71
2023/10/24 01:25:43;;;;;;;;;3.00;3.00;;;;;18.15;58.74;100297.75;2016541;27;2741899;-71
2023/10/24 01:26:56;;;;;;;;;3.33;3.33;;;;;18.17;58.75;100293.22;2040958;27;2737769;-71
2023/10/24 01:28:08;;;;;;;;;6.00;5.67;;;;;18.20;58.78;100293.00;2034738;27;2744022;-71
2023/10/24 01:29:18;;;;;;;;;3.00;3.00;;;;;18.21;58.38;100302.69;2034951;27;2749693;-71
2023/10/24 01:30:29;;;;;;;;;7.33;7.33;;;;;18.25;58.11;100308.63;2051639;27;2736721;-71
2023/10/24 01:31:40;;;;;;;;;4.67;3.00;;;;;18.25;58.10;100305.94;2010849;27;2748178;-71
2023/10/24 01:32:51;;;;;;;;;4.00;4.00;;;;;18.29;58.43;100304.78;2050826;27;2741928;-71
2023/10/24 01:34:02;;;;;;;;;7.33;6.33;;;;;18.31;58.56;100307.31;2063694;27;1818623;-72
2023/10/24 01:35:13;;;;;;;;;5.33;3.67;;;;;18.32;58.04;100312.53;2012136;27;2750277;-71
2023/10/24 01:36:24;;;;;;;;;5.33;5.33;;;;;18.35;58.08;100308.78;2045264;27;2742970;-71
2023/10/24 01:37:35;;;;;;;;;4.67;4.00;;;;;18.37;58.48;100312.19;2041685;27;2751402;-71
2023/10/24 01:38:46;;;;;;;;;3.67;3.67;;;;;18.40;57.97;100301.31;2035404;27;2750300;-71
2023/10/24 01:39:57;;;;;;;;;3.00;3.00;;;;;18.43;58.22;100302.91;2053224;27;2741928;-71
2023/10/24 01:41:10;;;;;;;;;4.83;3.83;;;;;18.47;58.04;100295.56;2057303;27;2738814;-71
2023/10/24 01:42:23;;;;;;;;;6.50;5.83;;;;;18.50;57.96;100297.97;2038052;27;2736759;-71
2023/10/24 01:43:34;;;;;;;;;6.00;6.00;;;;;18.51;57.77;100297.03;2011595;27;2745100;-71
2023/10/24 01:44:45;;;;;;;;;5.67;4.33;;;;;18.53;57.59;100292.44;2050716;27;2746098;-71
2023/10/24 01:45:55;;;;;;;;;7.00;7.00;;;;;18.53;57.94;100290.63;2030644;27;2746110;-71
2023/10/24 01:47:06;;;;;;;;;4.33;4.33;;;;;18.54;57.90;100292.31;2050020;27;2745134;-71
2023/10/24 01:48:18;;;;;;;;;5.67;4.00;;;;;18.55;57.47;100287.84;2047390;27;2748193;-71
2023/10/24 01:49:31;;;;;;;;;6.00;4.50;;;;;18.57;57.78;100293.91;2052523;27;2746095;-71
2023/10/24 01:50:44;;;;;;;;;5.17;4.00;;;;;18.59;57.83;100289.34;2029199;27;2746093;-71
2023/10/24 01:51:57;;;;;;;;;6.50;5.83;;;;;18.61;57.62;100292.72;2031167;27;2730477;-71
2023/10/24 01:53:08;;;;;;;;;6.00;6.00;;;;;18.61;57.75;100292.72;2002985;27;2736201;-72
2023/10/24 01:54:19;;;;;;;;;6.67;5.67;;;;;18.62;57.95;100294.41;2054313;27;2738842;-71
2023/10/24 01:55:29;;;;;;;;;5.00;5.00;;;;;18.63;57.58;100284.63;2027450;27;2740934;-71
2023/10/24 01:56:42;;;;;;;;;4.80;3.40;;;;;18.64;57.76;100287.16;2052024;27;2746096;-71
2023/10/24 01:57:52;;;;;;;;;3.00;3.00;;;;;18.65;57.58;100288.88;2033824;27;2754495;-71
2023/10/24 01:59:04;;;;;;;;;8.67;7.00;;;;;18.67;57.73;100291.41;2051710;27;3455429;-71
2023/10/24 02:00:15;;;;;;;;;5.00;3.33;;;;;18.66;57.72;100285.25;2035176;27;2750260;-71
2023/10/24 02:01:26;;;;;;;;;3.33;3.00;;;;;18.68;57.28;100287.78;2041225;27;2741931;-71
2023/10/24 02:02:36;;;;;;;;;4.00;4.00;;;;;18.68;57.40;100287.78;2048734;27;2750313;-71
2023/10/24 02:03:47;;;;;;;;;4.00;4.00;;;;;18.69;57.27;100285.97;2047363;27;2754505;-71
2023/10/24 02:04:58;;;;;;;;;3.00;3.00;;;;;18.71;57.77;100278.72;2044018;27;2748280;-71
2023/10/24 02:06:09;;;;;;;;;4.33;4.33;;;;;18.72;57.32;100283.06;2044494;27;2745081;-71
2023/10/24 02:07:20;;;;;;;;;5.00;5.00;;;;;18.72;57.61;100278.59;2046414;27;2740886;-71
2023/10/24 02:08:31;;;;;;;;;3.67;3.67;;;;;18.74;57.81;100273.19;2037676;27;3458577;-71
2023/10/24 02:09:42;;;;;;;;;4.33;4.33;;;;;18.75;57.05;100278.38;2036653;27;2750285;-71
2023/10/24 02:10:53;;;;;;;;;4.00;3.67;;;;;18.77;57.37;100272.94;2036594;28;2751399;-71
2023/10/24 02:12:04;;;;;;;;;4.00;4.00;;;;;18.78;56.95;100266.66;2039895;28;2739837;-71
2023/10/24 02:13:14;;;;;;;;;10.33;5.67;;;;;18.80;57.49;100278.03;2035480;27;2765986;-71
2023/10/24 02:14:25;;;;;;;;;9.00;8.00;;;;;18.78;57.05;100264.84;2047475;27;3465391;-71
2023/10/24 02:15:37;;;;;;;;;5.00;5.00;;;;;18.81;57.38;100269.09;2048162;27;2746206;-71
2023/10/24 02:16:48;;;;;;;;;5.33;4.67;;;;;18.82;57.30;100270.75;2034941;27;2747222;-71
2023/10/24 02:17:59;;;;;;;;;5.25;4.25;;;;;18.82;56.96;100273.44;2060189;27;2742982;-71
2023/10/24 02:19:13;;;;;;;;;7.00;7.00;;;;;18.82;56.91;100265.44;2061364;27;2732552;-71
2023/10/24 02:20:23;;;;;;;;;5.00;5.00;;;;;18.82;56.92;100270.75;2012691;27;2746126;-71
2023/10/24 02:21:34;;;;;;;;;6.00;5.00;;;;;18.84;57.14;100279.47;2052002;27;2737780;-71
2023/10/24 02:22:51;;;;;;;;;4.33;4.00;;;;;18.84;57.37;100268.84;2046974;27;2750733;-71
2023/10/24 02:24:02;;;;;;;;;5.00;5.00;;;;;18.85;56.66;100261.69;2035608;27;2748303;-71
2023/10/24 02:25:14;;;;;;;;;5.80;5.20;;;;;18.85;56.90;100267.88;2059769;27;2752399;-71
2023/10/24 02:26:25;;;;;;;;;6.33;5.33;;;;;18.86;56.79;100268.75;2026937;28;2742009;-71
2023/10/24 02:27:38;;;;;;;;;6.00;4.00;;;;;18.87;56.90;100265.94;2051140;27;2745068;-71
2023/10/24 02:28:51;;;;;;;;;6.67;6.67;;;;;18.87;56.95;100276.59;2053221;28;2732578;-71
2023/10/24 02:30:02;;;;;;;;;4.00;4.00;;;;;18.88;57.19;100272.13;1997945;27;2751323;-71
2023/10/24 02:31:14;;;;;;;;;9.00;6.00;;;;;18.88;57.27;100269.47;2038002;27;2739157;-71
2023/10/24 02:32:24;;;;;;;;;14.00;10.00;;;;;18.87;57.34;100265.94;2026151;27;2787759;-71
2023/10/24 02:33:35;;;;;;;;;3.00;3.00;;;;;18.86;57.28;100268.75;2044081;27;2742044;-71
2023/10/24 02:34:49;;;;;;;;;7.00;7.00;;;;;18.85;57.10;100267.88;2055012;27;1828380;-71
2023/10/24 02:36:10;;;;;;;;;6.00;5.00;;;;;18.84;57.14;100276.00;2027868;27;2750399;-71
2023/10/24 02:37:23;;;;;;;;;4.83;4.83;;;;;18.83;57.38;100274.28;2053868;27;2750325;-71
2023/10/24 02:38:34;;;;;;;;;4.00;4.00;;;;;18.82;57.08;100273.44;2003751;27;2745123;-71
2023/10/24 02:39:45;;;;;;;;;4.33;4.33;;;;;18.83;57.26;100275.13;2040853;27;2749282;-71
2023/10/24 02:40:56;;;;;;;;;4.75;4.75;;;;;18.84;57.02;100262.69;2057766;27;2727867;-71
2023/10/24 02:42:07;;;;;;;;;3.67;3.67;;;;;18.85;56.91;100262.56;2031606;27;2751424;-71
2023/10/24 02:43:18;;;;;;;;;11.67;9.00;;;;;18.86;56.83;100264.25;2041024;27;3493989;-71
2023/10/24 02:44:29;;;;;;;;;1.67;1.67;;;;;18.85;57.18;100262.56;2038969;27;2746123;-71
2023/10/24 02:45:39;;;;;;;;;10.33;8.00;;;;;18.84;57.15;100258.19;2039233;27;3477358;-71
2023/10/24 02:46:50;;;;;;;;;5.33;5.33;;;;;18.81;57.59;100254.91;2040577;28;2748182;-71
2023/10/24 02:48:01;;;;;;;;;4.33;4.33;;;;;18.80;57.03;100264.72;2038278;27;2750363;-71
2023/10/24 02:49:12;;;;;;;;;6.00;5.00;;;;;18.78;57.24;100256.00;2046281;27;2745070;-71
2023/10/24 02:50:23;;;;;;;;;4.00;4.00;;;;;18.77;57.43;100262.28;2049266;27;2754458;-71
2023/10/24 02:51:36;;;;;;;;;5.00;5.00;;;;;18.77;57.45;100265.78;2046668;27;2746099;-71
2023/10/24 02:52:46;;;;;;;;;5.67;5.67;;;;;18.78;56.79;100261.31;2034665;27;2735686;-71
2023/10/24 02:53:57;;;;;;;;;7.00;5.33;;;;;18.76;57.60;100257.94;2060282;27;2733611;-71
2023/10/24 02:55:09;;;;;;;;;7.00;7.00;;;;;18.75;57.53;100253.56;2040148;27;1824216;-71
2023/10/24 02:56:19;;;;;;;;;6.33;6.00;;;;;18.72;57.28;100256.44;2027991;27;2734664;-71
2023/10/24 02:57:31;;;;;;;;;4.00;2.00;;;;;18.67;57.64;100262.97;2060114;27;2746131;-71
2023/10/24 02:58:42;;;;;;;;;7.00;7.00;;;;;18.61;57.95;100258.13;2034565;27;2737756;-71
2023/10/24 02:59:52;;;;;;;;;6.33;6.33;;;;;18.58;57.61;100254.84;2035004;27;2734617;-71
2023/10/24 03:01:04;;;;;;;;;5.00;5.00;;;;;18.57;57.34;100259.31;2047395;27;2748622;-71
2023/10/24 03:02:14;;;;;;;;;6.33;5.67;;;;;18.59;57.87;100257.41;2029894;27;2736775;-71
2023/10/24 03:03:25;;;;;;;;;7.00;7.00;;;;;18.59;57.81;100254.75;2044105;27;2736715;-71
2023/10/24 03:04:37;;;;;;;;;8.25;5.00;;;;;18.58;57.77;100249.50;2060080;27;1822121;-71
2023/10/24 03:05:47;;;;;;;;;4.00;4.00;;;;;18.57;57.74;100253.97;2035361;27;2749304;-71
2023/10/24 03:06:58;;;;;;;;;3.33;3.00;;;;;18.57;57.84;100261.97;2059863;27;2724239;-71
2023/10/24 03:08:09;;;;;;;;;5.67;5.00;;;;;18.59;57.36;100251.22;2031726;27;2746103;-71
2023/10/24 03:09:20;;;;;;;;;4.00;4.00;;;;;18.61;57.23;100255.47;2044092;27;2748218;-71
2023/10/24 03:10:31;;;;;;;;;3.33;3.33;;;;;18.63;57.63;100253.53;2036124;27;2746129;-71
2023/10/24 03:11:41;;;;;;;;;8.67;6.00;;;;;18.64;57.88;100252.56;2040411;27;3460661;-71
2023/10/24 03:12:53;;;;;;;;;3.00;3.00;;;;;18.64;57.72;100252.56;2052073;27;2738917;-71
2023/10/24 03:14:04;;;;;;;;;5.00;5.00;;;;;18.65;57.50;100254.25;2017585;27;1808581;-72
2023/10/24 03:15:18;;;;;;;;;4.33;3.33;;;;;18.67;57.15;100243.50;2051888;27;2737790;-72
2023/10/24 03:16:28;;;;;;;;;4.00;2.33;;;;;18.69;57.53;100252.25;2006039;27;2741943;-72
2023/10/24 03:17:39;;;;;;;;;6.00;4.00;;;;;18.71;57.55;100244.13;2052876;27;2741955;-72
2023/10/24 03:18:50;;;;;;;;;4.33;3.67;;;;;18.73;57.39;100255.50;2027636;27;2748286;-72
2023/10/24 03:20:01;;;;;;;;;5.33;5.33;;;;;18.75;57.29;100250.91;2032807;27;3452326;-72
2023/10/24 03:21:12;;;;;;;;;7.00;6.33;;;;;18.74;57.83;100254.53;2049050;27;2735685;-72
2023/10/24 03:22:26;;;;;;;;;7.50;5.83;;;;;18.72;57.64;100254.66;2061697;27;2736714;-72
2023/10/24 03:23:36;;;;;;;;;4.00;4.00;;;;;18.72;57.70;100248.47;2010782;27;3464904;-72
2023/10/24 03:24:47;;;;;;;;;6.00;5.00;;;;;18.69;57.37;100251.38;2048306;27;2750292;-72
2023/10/24 03:25:58;;;;;;;;;5.00;4.33;;;;;18.67;57.67;100256.81;2050907;27;2752332;-71
2023/10/24 03:27:12;;;;;;;;;7.60;6.20;;;;;18.66;57.78;100253.31;2061116;27;2737797;-71
2023/10/24 03:28:23;;;;;;;;;7.00;6.33;;;;;18.64;58.06;100255.22;2026698;27;1829952;-71
2023/10/24 03:29:35;;;;;;;;;5.00;5.00;;;;;18.62;57.73;100254.50;2025087;27;2746102;-71
2023/10/24 03:30:48;;;;;;;;;4.00;4.00;;;;;18.61;57.76;100255.47;2034243;27;2747165;-71
2023/10/24 03:32:02;;;;;;;;;5.83;4.83;;;;;18.63;57.35;100258.84;2058750;27;2746141;-71
2023/10/24 03:33:12;;;;;;;;;6.00;5.67;;;;;18.63;57.66;100252.69;2003469;28;3451263;-72
2023/10/24 03:34:23;;;;;;;;;6.00;6.00;;;;;18.64;58.03;100257.88;2044272;27;2744733;-69
2023/10/24 03:35:35;;;;;;;;;4.00;3.00;;;;;18.65;57.34;100259.59;2039562;27;2746103;-71
2023/10/24 03:36:45;;;;;;;;;6.00;5.67;;;;;18.66;57.73;100258.63;2027287;27;2737772;-71
2023/10/24 03:37:57;;;;;;;;;1.00;1.00;;;;;18.65;57.79;100262.25;2052863;28;2720077;-72
2023/10/24 03:39:08;;;;;;;;;6.67;4.00;;;;;18.66;57.54;100260.44;2003349;27;2748744;-71
2023/10/24 03:40:19;;;;;;;;;6.67;6.67;;;;;18.68;57.61;100266.50;2032107;27;2741939;-71
2023/10/24 03:41:30;;;;;;;;;9.67;6.00;;;;;18.69;57.74;100272.66;2048966;27;2748293;-72
2023/10/24 03:42:42;;;;;;;;;6.00;5.50;;;;;18.63;57.86;100272.16;2060160;27;2732588;-72
2023/10/24 03:43:55;;;;;;;;;4.67;3.67;;;;;18.61;57.60;100271.44;2061579;27;2740943;-72
2023/10/24 03:45:06;;;;;;;;;5.00;5.00;;;;;18.59;58.05;100268.06;2012784;27;2748185;-72
2023/10/24 03:46:16;;;;;;;;;4.00;4.00;;;;;18.58;57.83;100265.47;2035871;27;2752849;-71
2023/10/24 03:47:28;;;;;;;;;6.75;6.75;;;;;18.58;57.77;100263.69;2052307;27;2740890;-71
2023/10/24 03:48:41;;;;;;;;;3.83;3.83;;;;;18.58;57.80;100258.34;2055537;27;2747177;-71
2023/10/24 03:49:52;;;;;;;;;7.33;5.00;;;;;18.59;57.66;100260.06;2010350;27;3459607;-71
2023/10/24 03:51:03;;;;;;;;;7.00;7.00;;;;;18.60;57.76;100259.09;2051317;27;3455480;-71
2023/10/24 03:52:15;;;;;;;;;6.75;6.25;;;;;18.59;57.94;100268.06;2060263;27;2745149;-71
2023/10/24 03:53:25;;;;;;;;;3.67;3.67;;;;;18.55;58.22;100258.56;2026751;27;2753505;-71
2023/10/24 03:54:36;;;;;;;;;7.00;6.00;;;;;18.53;58.25;100260.50;2046634;27;2746160;-71
2023/10/24 03:55:55;;;;;;;;;5.00;5.00;;;;;18.48;58.44;100260.00;2047733;27;2738875;-71
2023/10/24 03:57:06;;;;;;;;;7.00;5.00;;;;;18.42;58.60;100266.66;2027572;27;2737753;-71
2023/10/24 03:58:17;;;;;;;;;7.00;7.00;;;;;18.37;58.79;100269.63;2052470;27;2735675;-71
2023/10/24 03:59:27;;;;;;;;;4.33;3.67;;;;;18.33;58.44;100263.69;2004951;27;2740884;-71
2023/10/24 04:00:38;;;;;;;;;3.00;3.00;;;;;18.32;58.23;100261.97;2052080;27;2731547;-71
2023/10/24 04:01:49;;;;;;;;;5.67;5.67;;;;;18.32;58.61;100255.84;2026770;27;2737782;-71
2023/10/24 04:03:00;;;;;;;;;8.33;7.33;;;;;18.29;59.20;100261.38;2058686;27;1829476;-71
2023/10/24 04:04:10;;;;;;;;;3.00;3.00;;;;;18.26;58.77;100262.44;2027362;27;2742472;-71
2023/10/24 04:05:22;;;;;;;;;4.67;3.67;;;;;18.24;58.59;100259.06;2042853;27;2751416;-71
2023/10/24 04:06:35;;;;;;;;;6.33;5.00;;;;;18.24;59.03;100269.69;2027344;27;2746085;-71
2023/10/24 04:07:46;;;;;;;;;6.00;5.67;;;;;18.22;58.84;100269.78;2026957;27;3453380;-70
2023/10/24 04:09:02;;;;;;;;;5.75;5.75;;;;;18.24;59.32;100268.84;2059589;27;2734629;-71
2023/10/24 04:10:16;;;;;;;;;5.17;4.67;;;;;18.24;59.03;100266.19;2059839;27;2741954;-71
2023/10/24 04:11:29;;;;;;;;;4.50;4.33;;;;;18.24;58.79;100264.38;2034538;27;2740906;-71
2023/10/24 04:12:40;;;;;;;;;3.33;3.33;;;;;18.27;58.96;100265.97;2004888;27;3466927;-71
2023/10/24 04:13:52;;;;;;;;;6.80;3.80;;;;;18.28;58.83;100265.84;2052202;28;2741969;-71
2023/10/24 04:15:03;;;;;;;;;3.00;3.00;;;;;18.30;58.60;100263.91;2032715;27;2754514;-71
2023/10/24 04:16:16;;;;;;;;;5.00;4.50;;;;;18.32;58.61;100254.00;2061007;27;2737756;-71
2023/10/24 04:17:30;;;;;;;;;4.83;4.67;;;;;18.37;58.51;100263.47;2037004;27;2749262;-71
2023/10/24 04:18:40;;;;;;;;;4.33;3.67;;;;;18.37;58.74;100260.81;2002918;27;2738826;-71
2023/10/24 04:19:51;;;;;;;;;6.00;4.00;;;;;18.38;58.79;100258.03;2041463;27;3456537;-71
2023/10/24 04:21:03;;;;;;;;;4.00;3.00;;;;;18.38;58.48;100263.34;2054443;27;2748197;-71
2023/10/24 04:22:16;;;;;;;;;3.00;3.00;;;;;18.39;58.44;100261.53;2053230;27;2740888;-71
2023/10/24 04:23:26;;;;;;;;;3.67;3.67;;;;;18.41;58.43;100255.16;2003192;27;2750315;-71
2023/10/24 04:24:37;;;;;;;;;3.00;3.00;;;;;18.42;58.50;100254.16;2043624;27;2744053;-71
2023/10/24 04:25:48;;;;;;;;;4.00;4.00;;;;;18.47;58.62;100253.00;2040590;28;2740898;-71
2023/10/24 04:26:59;;;;;;;;;3.67;3.33;;;;;18.50;58.49;100258.06;2039267;27;2752882;-71
2023/10/24 04:28:12;;;;;;;;;4.00;2.00;;;;;18.53;58.33;100257.84;2052030;27;2729446;-71
2023/10/24 04:29:22;;;;;;;;;4.00;4.00;;;;;18.54;58.18;100254.22;2027600;27;2743423;-71
2023/10/24 04:30:33;;;;;;;;;6.33;6.00;;;;;18.51;58.50;100249.13;2050339;27;2746093;-71
2023/10/24 04:31:44;;;;;;;;;4.00;4.00;;;;;18.48;58.47;100249.34;2044324;27;2747201;-71
2023/10/24 04:32:55;;;;;;;;;4.00;4.00;;;;;18.42;58.76;100248.84;2045073;27;2754483;-71
2023/10/24 04:34:06;;;;;;;;;4.33;4.33;;;;;18.42;58.79;100248.84;2034109;27;2750276;-71
2023/10/24 04:35:17;;;;;;;;;5.33;5.33;;;;;18.40;58.74;100248.13;2037256;27;2745050;-72
2023/10/24 04:36:28;;;;;;;;;3.00;0.00;;;;;18.37;59.29;100255.50;2059840;27;2731530;-71
2023/10/24 04:37:42;;;;;;;;;9.00;6.33;;;;;18.30;58.97;100258.59;2037842;27;2746111;-71
2023/10/24 04:38:52;;;;;;;;;4.00;4.00;;;;;18.21;59.29;100260.13;2009178;27;2740970;-71
2023/10/24 04:40:03;;;;;;;;;4.00;4.00;;;;;18.14;59.58;100260.66;2047278;27;3458582;-71
2023/10/24 04:41:14;;;;;;;;;4.67;4.67;;;;;18.06;59.71;100261.19;2027185;27;2740908;-71
2023/10/24 04:42:25;;;;;;;;;4.00;4.00;;;;;17.97;59.96;100263.59;2041909;27;3464816;-71
2023/10/24 04:43:36;;;;;;;;;3.00;3.00;;;;;17.90;60.44;100261.47;2040873;27;2750309;-71
2023/10/24 04:44:47;;;;;;;;;5.33;5.33;;;;;17.82;60.18;100254.91;2037892;27;2750335;-71
2023/10/24 04:45:57;;;;;;;;;5.00;4.67;;;;;17.76;60.17;100256.19;2028840;27;2740258;-71
2023/10/24 04:47:09;;;;;;;;;3.75;3.75;;;;;17.76;59.82;100248.22;2051460;27;2745044;-71
2023/10/24 04:48:19;;;;;;;;;4.00;4.00;;;;;17.79;60.66;100243.63;2035151;27;2754466;-71
2023/10/24 04:49:30;;;;;;;;;5.67;5.33;;;;;17.77;60.52;100244.59;2052506;27;2746161;-71
2023/10/24 04:50:41;;;;;;;;;5.00;4.33;;;;;17.77;60.43;100255.25;2045138;27;2745087;-71
2023/10/24 04:51:52;;;;;;;;;4.00;4.00;;;;;17.74;60.42;100255.44;2041421;27;2744011;-71
2023/10/24 04:53:07;;;;;;;;;4.00;4.00;;;;;17.71;60.98;100253.00;2052372;27;2738808;-71
2023/10/24 04:54:17;;;;;;;;;6.00;5.00;;;;;17.70;60.55;100261.94;2005323;27;2742964;-71
2023/10/24 04:55:29;;;;;;;;;3.00;3.00;;;;;17.69;60.90;100270.88;2052344;27;2746102;-71
2023/10/24 04:56:39;;;;;;;;;3.67;3.00;;;;;17.67;60.55;100256.84;2027433;27;2745063;-71
2023/10/24 04:57:50;;;;;;;;;3.33;3.33;;;;;17.68;60.88;100263.03;2054769;27;2744038;-71
2023/10/24 04:59:04;;;;;;;;;5.00;5.00;;;;;17.65;61.21;100264.09;2052613;27;2742423;-71
2023/10/24 05:00:15;;;;;;;;;5.67;5.00;;;;;17.61;60.77;100254.59;2003885;27;2749296;-71
2023/10/24 05:01:25;;;;;;;;;4.00;4.00;;;;;17.57;61.43;100256.66;2025694;27;2754525;-71
2023/10/24 05:02:36;;;;;;;;;4.33;2.67;;;;;17.56;61.32;100259.44;2043823;27;2750633;-71
2023/10/24 05:03:47;;;;;;;;;6.00;5.00;;;;;17.54;61.21;100260.38;2037802;27;2746098;-71
2023/10/24 05:04:59;;;;;;;;;5.00;5.00;;;;;17.52;61.34;100264.09;2058124;27;2746100;-71
2023/10/24 05:06:10;;;;;;;;;4.00;4.00;;;;;17.50;61.09;100272.19;2025438;27;2752416;-71
2023/10/24 05:07:20;;;;;;;;;2.00;1.67;;;;;17.51;61.43;100267.69;2035092;27;2741936;-71
2023/10/24 05:08:31;;;;;;;;;4.00;4.00;;;;;17.51;61.15;100268.53;2049210;27;2750863;-71
2023/10/24 05:09:42;;;;;;;;;6.00;4.00;;;;;17.52;61.80;100270.25;2041879;27;2746143;-71
2023/10/24 05:10:54;;;;;;;;;4.33;4.00;;;;;17.52;61.86;100259.63;2047757;27;2749239;-71
2023/10/24 05:12:07;;;;;;;;;3.83;3.83;;;;;17.50;61.47;100264.22;2061232;27;2747139;-71
2023/10/24 05:13:18;;;;;;;;;5.33;5.00;;;;;17.46;61.60;100260.03;2005001;27;3452343;-71
2023/10/24 05:14:28;;;;;;;;;4.00;4.00;;;;;17.46;61.00;100265.34;2047130;27;2746109;-71
2023/10/24 05:15:39;;;;;;;;;5.67;4.00;;;;;17.47;62.03;100256.44;2044214;27;3462748;-71
2023/10/24 05:16:50;;;;;;;;;4.67;4.00;;;;;17.46;61.68;100254.72;2059416;27;2747156;-71
2023/10/24 05:18:01;;;;;;;;;3.00;3.00;;;;;17.47;61.50;100255.59;2010730;27;2730559;-71
2023/10/24 05:19:12;;;;;;;;;4.00;4.00;;;;;17.46;61.74;100252.06;2055982;27;2745099;-71
2023/10/24 05:20:25;;;;;;;;;4.83;3.00;;;;;17.48;61.86;100252.81;2036632;27;2731550;-71
2023/10/24 05:21:35;;;;;;;;;6.33;4.67;;;;;17.49;62.10;100248.34;2010739;27;2739946;-71
2023/10/24 05:22:46;;;;;;;;;3.00;3.00;;;;;17.50;61.43;100252.72;2044675;27;2748166;-71
2023/10/24 05:23:58;;;;;;;;;4.00;4.00;;;;;17.53;61.45;100250.69;2035019;27;2752336;-71
2023/10/24 05:25:12;;;;;;;;;4.67;4.67;;;;;17.54;61.51;100251.53;2060417;27;2746202;-71